Time;durP1;ratioP1;P1;durP2;ratioP2;P2;SDS_P1;SDS_P2;PMS_P1;PMS_P2;Temp;Humidity;BMP_temperature;BMP_pressure;BME280_temperature;BME280_humidity;BME280_pressure;Samples;Min_cycle;Max_cycle;Signal;HPM_P1;HPM_P2
2022/02/01 00:01:57;;;;;;;3.15;2.40;;;;;;;;;;5029935;28;20044;-59
2022/02/01 00:07:31;;;;;;;4.18;2.50;;;;;;;;;;5038433;28;20053;-59
2022/02/01 00:10:24;;;;;;;7.15;3.30;;;;;;;;;;5034140;28;20029;-60
2022/02/01 00:39:03;;;;;;;6.80;2.53;;;;;;;;;;5035347;28;20415;-60
2022/02/01 00:41:34;;;;;;;4.43;2.60;;;;;;;;;;5032414;28;20399;-60
2022/02/01 00:44:02;;;;;;;6.50;2.70;;;;;;;;;;5034036;28;20064;-60
2022/02/01 00:46:28;;;;;;;3.75;2.33;;;;;;;;;;5033313;28;20523;-60
2022/02/01 00:48:54;;;;;;;6.50;2.58;;;;;;;;;;5031220;28;20527;-60
2022/02/01 00:51:20;;;;;;;4.32;2.53;;;;;;;;;;5031592;28;20037;-59
2022/02/01 00:53:46;;;;;;;4.95;2.22;;;;;;;;;;5032229;28;20406;-59
2022/02/01 00:56:14;;;;;;;5.30;2.40;;;;;;;;;;5032308;28;20022;-59
2022/02/01 00:58:40;;;;;;;7.15;2.67;;;;;;;;;;5034859;28;20459;-59
2022/02/01 01:01:05;;;;;;;2.80;1.90;;;;;;;;;;5032891;28;20029;-59
2022/02/01 01:03:31;;;;;;;5.72;2.10;;;;;;;;;;5033526;28;20029;-59
2022/02/01 01:05:56;;;;;;;2.53;2.00;;;;;;;;;;5029209;28;20384;-59
2022/02/01 01:08:22;;;;;;;5.65;2.20;;;;;;;;;;5028351;28;20074;-60
2022/02/01 01:10:48;;;;;;;3.45;1.75;;;;;;;;;;5027419;28;20480;-60
2022/02/01 01:53:43;;;;;;;4.82;1.80;;;;;;;;;;5027596;28;20036;-59
2022/02/01 01:56:09;;;;;;;3.10;1.90;;;;;;;;;;5035534;28;20029;-59
2022/02/01 01:58:34;;;;;;;8.25;2.58;;;;;;;;;;5026624;28;20400;-59
2022/02/01 02:01:12;;;;;;;7.07;2.47;;;;;;;;;;5031112;28;20144;-59
2022/02/01 02:03:40;;;;;;;5.82;2.05;;;;;;;;;;5040479;28;20108;-59
2022/02/01 02:06:06;;;;;;;8.70;2.30;;;;;;;;;;5037753;28;20083;-59
2022/02/01 02:08:32;;;;;;;8.95;2.63;;;;;;;;;;5029353;28;20489;-59
2022/02/01 02:11:05;;;;;;;7.80;3.05;;;;;;;;;;5030774;28;20033;-59
2022/02/01 02:16:18;;;;;;;5.40;2.20;;;;;;;;;;5026668;28;20040;-59
2022/02/01 02:18:44;;;;;;;10.52;3.00;;;;;;;;;;5035976;28;20030;-59
2022/02/01 02:21:09;;;;;;;9.00;2.65;;;;;;;;;;5033959;28;20021;-59
2022/02/01 02:23:35;;;;;;;4.47;2.17;;;;;;;;;;5034189;28;20032;-59
2022/02/01 02:26:04;;;;;;;5.22;2.78;;;;;;;;;;5034579;28;20139;-59
2022/02/01 02:28:30;;;;;;;7.95;2.78;;;;;;;;;;5035433;28;20452;-59
2022/02/01 02:30:55;;;;;;;6.88;2.70;;;;;;;;;;5037534;28;20076;-59
2022/02/01 02:33:21;;;;;;;7.25;2.42;;;;;;;;;;5034372;28;20431;-59
2022/02/01 02:35:58;;;;;;;6.55;2.25;;;;;;;;;;5034456;28;20499;-59
2022/02/01 02:41:21;;;;;;;11.13;2.75;;;;;;;;;;5034251;28;20503;-60
2022/02/01 02:46:34;;;;;;;8.98;2.92;;;;;;;;;;5034334;28;20063;-59
2022/02/01 02:49:00;;;;;;;7.88;2.20;;;;;;;;;;5040657;28;20487;-59
2022/02/01 02:51:28;;;;;;;7.03;2.45;;;;;;;;;;5035143;28;20033;-59
2022/02/01 02:53:54;;;;;;;5.50;2.00;;;;;;;;;;5031232;28;20459;-59
2022/02/01 02:56:20;;;;;;;6.32;2.22;;;;;;;;;;5030516;28;20120;-59
2022/02/01 02:58:50;;;;;;;9.32;2.20;;;;;;;;;;5031727;28;20164;-59
2022/02/01 03:01:16;;;;;;;11.48;2.42;;;;;;;;;;5031901;28;20033;-59
2022/02/01 03:03:41;;;;;;;6.72;2.38;;;;;;;;;;5037506;28;20407;-59
2022/02/01 03:06:07;;;;;;;12.77;3.40;;;;;;;;;;5029830;28;20018;-59
2022/02/01 03:08:35;;;;;;;10.25;2.45;;;;;;;;;;5033081;28;20067;-59
2022/02/01 03:11:04;;;;;;;7.22;2.35;;;;;;;;;;5032474;28;20025;-59
2022/02/01 03:13:31;;;;;;;13.65;2.63;;;;;;;;;;5028551;28;20108;-59
2022/02/01 03:21:06;;;;;;;12.15;2.58;;;;;;;;;;5032607;28;20064;-59
2022/02/01 03:23:32;;;;;;;20.40;2.80;;;;;;;;;;5034473;28;20057;-61
2022/02/01 03:25:57;;;;;;;10.65;2.53;;;;;;;;;;5032922;28;20024;-58
2022/02/01 03:28:23;;;;;;;15.35;2.97;;;;;;;;;;5032176;28;20025;-60
2022/02/01 03:30:48;;;;;;;13.48;2.83;;;;;;;;;;5033467;28;20094;-60
2022/02/01 03:33:14;;;;;;;18.35;3.35;;;;;;;;;;5031320;28;20113;-60
2022/02/01 03:35:39;;;;;;;15.07;3.63;;;;;;;;;;5033887;28;20025;-59
2022/02/01 03:38:05;;;;;;;10.75;2.72;;;;;;;;;;5035013;28;20037;-59
2022/02/01 03:40:30;;;;;;;11.02;2.55;;;;;;;;;;5032229;28;20277;-59
2022/02/01 03:42:55;;;;;;;19.27;3.53;;;;;;;;;;5036324;28;20032;-59
2022/02/01 03:45:21;;;;;;;18.92;4.18;;;;;;;;;;5032011;28;20108;-58
2022/02/01 03:47:46;;;;;;;24.13;3.03;;;;;;;;;;5029837;28;20040;-59
2022/02/01 03:50:12;;;;;;;7.20;2.22;;;;;;;;;;5038719;28;20396;-58
2022/02/01 03:52:38;;;;;;;12.35;2.58;;;;;;;;;;5032765;28;20107;-59
2022/02/01 03:55:04;;;;;;;15.20;3.20;;;;;;;;;;5030406;28;20032;-59
2022/02/01 03:57:29;;;;;;;13.68;3.20;;;;;;;;;;5032626;28;20467;-59
2022/02/01 03:59:55;;;;;;;10.80;2.83;;;;;;;;;;5036930;28;20115;-59
2022/02/01 04:02:20;;;;;;;13.57;2.90;;;;;;;;;;5031711;28;20028;-59
2022/02/01 04:04:52;;;;;;;13.25;2.60;;;;;;;;;;5033016;28;20116;-59
2022/02/01 04:07:17;;;;;;;12.80;2.53;;;;;;;;;;5028829;28;20025;-58
2022/02/01 04:09:43;;;;;;;11.30;2.78;;;;;;;;;;5033343;28;20025;-59
2022/02/01 04:12:08;;;;;;;12.02;2.42;;;;;;;;;;5029335;28;20025;-59
2022/02/01 04:14:35;;;;;;;6.03;2.08;;;;;;;;;;5029891;28;20099;-61
2022/02/01 04:17:04;;;;;;;14.48;2.67;;;;;;;;;;5030972;28;20091;-60
2022/02/01 04:19:31;;;;;;;9.00;2.60;;;;;;;;;;5032468;28;20108;-59
2022/02/01 04:22:01;;;;;;;14.38;3.70;;;;;;;;;;5029739;28;20036;-60
2022/02/01 04:24:28;;;;;;;12.80;2.97;;;;;;;;;;5030235;28;20128;-60
2022/02/01 04:26:54;;;;;;;21.35;2.97;;;;;;;;;;5032049;28;20476;-60
2022/02/01 04:29:19;;;;;;;14.85;3.15;;;;;;;;;;5030684;28;20032;-60
2022/02/01 04:31:45;;;;;;;25.88;3.03;;;;;;;;;;5032355;28;20029;-60
2022/02/01 04:34:11;;;;;;;16.38;2.92;;;;;;;;;;5032082;28;20120;-60
2022/02/01 04:36:36;;;;;;;9.48;2.63;;;;;;;;;;5026937;28;20041;-60
2022/02/01 04:39:03;;;;;;;11.32;2.95;;;;;;;;;;5033006;28;20021;-60
2022/02/01 04:41:29;;;;;;;21.25;5.47;;;;;;;;;;5036911;28;20025;-60
2022/02/01 04:43:57;;;;;;;14.60;3.78;;;;;;;;;;5037361;28;20503;-60
2022/02/01 04:46:23;;;;;;;14.60;3.70;;;;;;;;;;5029849;28;20523;-60
2022/02/01 04:48:49;;;;;;;13.35;3.17;;;;;;;;;;5037746;28;20107;-59
2022/02/01 04:51:17;;;;;;;15.82;2.90;;;;;;;;;;5035864;28;20028;-59
2022/02/01 04:53:44;;;;;;;9.57;2.42;;;;;;;;;;5029369;28;20112;-59
2022/02/01 04:56:09;;;;;;;13.05;2.95;;;;;;;;;;5056257;28;20116;-59
2022/02/01 04:58:35;;;;;;;14.55;3.03;;;;;;;;;;5035737;28;20148;-59
2022/02/01 05:01:01;;;;;;;15.18;2.95;;;;;;;;;;5034574;28;20040;-60
2022/02/01 05:03:26;;;;;;;15.23;3.10;;;;;;;;;;5027100;28;20124;-60
2022/02/01 05:05:52;;;;;;;15.82;3.08;;;;;;;;;;5033549;28;20108;-60
2022/02/01 05:08:18;;;;;;;10.15;2.70;;;;;;;;;;5032026;28;20057;-60
2022/02/01 05:10:44;;;;;;;13.60;3.55;;;;;;;;;;5031710;28;20036;-59
2022/02/01 05:16:06;;;;;;;21.83;3.55;;;;;;;;;;5033453;28;20082;-59
2022/02/01 05:19:02;;;;;;;13.93;3.95;;;;;;;;;;5031061;28;20591;-60
2022/02/01 05:21:24;;;;;;;17.48;3.20;;;;;;;;;;5029228;28;20414;-60
2022/02/01 05:23:51;;;;;;;13.50;3.08;;;;;;;;;;5030757;28;20022;-60
2022/02/01 05:26:22;;;;;;;10.60;2.85;;;;;;;;;;5033031;28;20032;-60
2022/02/01 05:28:48;;;;;;;14.98;4.13;;;;;;;;;;5034228;28;20391;-59
2022/02/01 05:31:15;;;;;;;11.07;3.60;;;;;;;;;;5030248;28;20021;-60
2022/02/01 05:33:40;;;;;;;11.90;3.17;;;;;;;;;;5032892;28;20033;-60
2022/02/01 05:36:07;;;;;;;14.60;4.50;;;;;;;;;;5038028;28;20534;-60
2022/02/01 05:38:33;;;;;;;23.15;3.80;;;;;;;;;;5031341;28;20032;-59
2022/02/01 05:41:00;;;;;;;17.23;4.05;;;;;;;;;;5037182;28;20527;-59
2022/02/01 05:43:27;;;;;;;15.13;4.97;;;;;;;;;;5039834;28;20535;-60
2022/02/01 05:45:56;;;;;;;12.30;3.63;;;;;;;;;;5033838;28;20029;-59
2022/02/01 05:48:22;;;;;;;21.98;4.18;;;;;;;;;;5034299;28;20036;-59
2022/02/01 05:50:48;;;;;;;17.92;3.22;;;;;;;;;;5034653;28;20037;-59
2022/02/01 05:53:15;;;;;;;11.52;3.50;;;;;;;;;;5032723;28;20025;-59
2022/02/01 05:55:40;;;;;;;16.60;3.72;;;;;;;;;;5035275;28;20151;-60
2022/02/01 05:58:06;;;;;;;13.68;3.22;;;;;;;;;;5041265;28;20032;-60
2022/02/01 06:00:31;;;;;;;15.77;3.53;;;;;;;;;;5038848;28;20033;-60
2022/02/01 06:02:57;;;;;;;20.73;2.97;;;;;;;;;;5034690;28;20036;-59
2022/02/01 06:05:22;;;;;;;20.40;3.75;;;;;;;;;;5038951;28;20633;-60
2022/02/01 06:07:48;;;;;;;18.83;3.40;;;;;;;;;;5031570;28;20049;-59
2022/02/01 06:10:13;;;;;;;17.50;4.22;;;;;;;;;;5034265;28;20035;-61
2022/02/01 06:12:49;;;;;;;21.88;4.32;;;;;;;;;;5033153;28;20029;-62
2022/02/01 06:15:22;;;;;;;23.33;5.20;;;;;;;;;;5036545;28;20509;-62
2022/02/01 06:17:48;;;;;;;21.25;3.75;;;;;;;;;;5029551;28;20033;-61
2022/02/01 06:20:14;;;;;;;14.13;3.78;;;;;;;;;;5033406;28;20480;-61
2022/02/01 06:22:39;;;;;;;26.45;4.07;;;;;;;;;;5033844;28;20476;-61
2022/02/01 06:25:06;;;;;;;24.95;4.22;;;;;;;;;;5035084;28;20113;-62
2022/02/01 06:27:32;;;;;;;19.00;3.70;;;;;;;;;;5034153;28;20068;-62
2022/02/01 06:29:58;;;;;;;16.80;3.88;;;;;;;;;;5038152;28;20060;-62
2022/02/01 06:32:29;;;;;;;16.30;4.20;;;;;;;;;;5037045;28;20037;-62
2022/02/01 06:34:54;;;;;;;17.45;3.28;;;;;;;;;;5036832;28;20027;-61
2022/02/01 06:37:20;;;;;;;16.77;3.90;;;;;;;;;;5034058;28;20484;-61
2022/02/01 06:39:45;;;;;;;11.50;3.15;;;;;;;;;;5031712;28;20553;-62
2022/02/01 06:42:11;;;;;;;16.27;4.03;;;;;;;;;;5034629;28;20036;-61
2022/02/01 06:44:36;;;;;;;23.92;4.90;;;;;;;;;;5036389;28;20033;-61
2022/02/01 06:47:02;;;;;;;18.48;3.38;;;;;;;;;;5035188;28;20541;-61
2022/02/01 06:49:27;;;;;;;14.88;4.20;;;;;;;;;;5029262;28;20033;-62
2022/02/01 06:51:53;;;;;;;11.70;3.30;;;;;;;;;;5034546;28;20017;-59
2022/02/01 06:54:18;;;;;;;18.58;3.58;;;;;;;;;;5031603;28;20018;-59
2022/02/01 06:56:44;;;;;;;16.85;3.88;;;;;;;;;;5025982;28;20029;-61
2022/02/01 06:59:10;;;;;;;14.73;4.55;;;;;;;;;;5034886;28;20029;-62
2022/02/01 07:01:35;;;;;;;14.18;4.97;;;;;;;;;;5031676;28;20088;-62
2022/02/01 07:04:01;;;;;;;13.70;3.63;;;;;;;;;;5035771;28;20026;-59
2022/02/01 07:06:30;;;;;;;12.85;4.13;;;;;;;;;;5032670;28;20029;-62
2022/02/01 07:08:57;;;;;;;15.27;4.47;;;;;;;;;;5029817;28;20469;-62
2022/02/01 07:11:23;;;;;;;15.00;4.03;;;;;;;;;;5033076;28;20033;-63
2022/02/01 07:13:49;;;;;;;13.10;4.05;;;;;;;;;;5031341;28;20013;-62
2022/02/01 07:16:17;;;;;;;13.27;3.83;;;;;;;;;;5026846;28;20495;-62
2022/02/01 07:18:43;;;;;;;15.52;3.85;;;;;;;;;;5029663;28;20060;-61
2022/02/01 07:21:09;;;;;;;10.30;3.67;;;;;;;;;;5029665;28;20126;-61
2022/02/01 07:23:35;;;;;;;17.58;3.40;;;;;;;;;;5032073;28;20033;-61
2022/02/01 07:26:01;;;;;;;12.38;3.05;;;;;;;;;;5031370;28;20105;-62
2022/02/01 07:28:29;;;;;;;12.35;3.38;;;;;;;;;;5029019;28;20503;-61
2022/02/01 07:30:55;;;;;;;18.08;4.00;;;;;;;;;;5032723;28;20120;-61
2022/02/01 07:33:23;;;;;;;12.90;3.20;;;;;;;;;;5030359;28;20111;-61
2022/02/01 07:35:49;;;;;;;16.58;3.45;;;;;;;;;;5029104;28;20500;-62
2022/02/01 07:38:18;;;;;;;19.55;3.45;;;;;;;;;;5028145;28;20025;-62
2022/02/01 07:40:45;;;;;;;15.45;4.10;;;;;;;;;;5035688;28;20033;-60
2022/02/01 07:43:13;;;;;;;11.43;3.33;;;;;;;;;;5028023;28;20587;-61
2022/02/01 07:45:41;;;;;;;12.50;3.22;;;;;;;;;;5031132;28;20200;-61
2022/02/01 07:48:07;;;;;;;15.40;3.75;;;;;;;;;;5035851;28;20029;-61
2022/02/01 07:50:33;;;;;;;17.85;4.00;;;;;;;;;;5028364;28;20117;-61
2022/02/01 07:53:00;;;;;;;12.48;3.90;;;;;;;;;;5031978;28;20100;-61
2022/02/01 07:55:26;;;;;;;14.90;3.75;;;;;;;;;;5032284;28;20125;-61
2022/02/01 07:57:52;;;;;;;13.43;2.95;;;;;;;;;;5030002;28;20434;-61
2022/02/01 08:00:18;;;;;;;16.13;3.90;;;;;;;;;;5027387;28;20032;-60
2022/02/01 08:02:43;;;;;;;11.43;4.22;;;;;;;;;;5028257;28;20464;-61
2022/02/01 08:05:11;;;;;;;16.33;4.03;;;;;;;;;;5024456;28;20536;-61
2022/02/01 08:07:37;;;;;;;10.52;3.50;;;;;;;;;;5029169;28;20029;-61
2022/02/01 08:10:08;;;;;;;11.60;2.70;;;;;;;;;;5029510;28;20109;-61
2022/02/01 08:20:27;;;;;;;13.23;3.45;;;;;;;;;;5028551;28;20112;-61
2022/02/01 08:25:23;;;;;;;13.85;3.70;;;;;;;;;;5035740;28;20032;-60
2022/02/01 08:27:48;;;;;;;9.57;4.35;;;;;;;;;;5030564;28;20040;-61
2022/02/01 08:30:14;;;;;;;13.50;4.18;;;;;;;;;;5031782;28;20112;-64
2022/02/01 08:32:39;;;;;;;16.00;3.97;;;;;;;;;;5026976;28;20029;-61
2022/02/01 08:35:05;;;;;;;14.13;4.10;;;;;;;;;;5032814;28;20498;-61
2022/02/01 08:37:32;;;;;;;14.25;4.38;;;;;;;;;;5032251;28;20671;-62
2022/02/01 08:39:59;;;;;;;15.90;4.13;;;;;;;;;;5030800;28;20311;-62
2022/02/01 08:42:24;;;;;;;15.15;4.68;;;;;;;;;;5029002;28;20048;-61
2022/02/01 08:44:50;;;;;;;8.65;4.10;;;;;;;;;;5030275;28;20033;-61
2022/02/01 08:47:16;;;;;;;16.73;5.88;;;;;;;;;;5030904;28;20124;-62
2022/02/01 08:49:42;;;;;;;14.73;6.30;;;;;;;;;;5029070;28;20538;-61
2022/02/01 08:52:12;;;;;;;13.10;5.20;;;;;;;;;;5028680;28;20105;-62
2022/02/01 08:54:39;;;;;;;17.13;5.18;;;;;;;;;;5040866;28;20048;-62
2022/02/01 09:00:05;;;;;;;24.58;6.53;;;;;;;;;;5025396;28;20044;-62
2022/02/01 09:02:31;;;;;;;15.70;4.32;;;;;;;;;;5027500;28;20421;-62
2022/02/01 09:04:57;;;;;;;23.35;5.45;;;;;;;;;;5030621;28;20026;-61
2022/02/01 09:07:23;;;;;;;26.90;5.22;;;;;;;;;;5027657;28;20021;-61
2022/02/01 09:09:49;;;;;;;42.15;8.88;;;;;;;;;;5033735;28;20032;-61
2022/02/01 09:12:17;;;;;;;39.70;9.00;;;;;;;;;;5036282;28;20401;-62
2022/02/01 09:14:44;;;;;;;26.98;7.05;;;;;;;;;;5032580;28;20035;-62
2022/02/01 09:17:09;;;;;;;38.42;9.13;;;;;;;;;;5033505;28;20060;-61
2022/02/01 09:19:35;;;;;;;14.93;5.13;;;;;;;;;;5036011;28;20057;-61
2022/02/01 09:22:05;;;;;;;23.25;5.43;;;;;;;;;;5036504;28;20029;-61
2022/02/01 09:24:31;;;;;;;15.32;4.72;;;;;;;;;;5034076;28;20381;-61
2022/02/01 09:26:57;;;;;;;15.32;4.78;;;;;;;;;;5033130;28;20036;-61
2022/02/01 09:29:23;;;;;;;9.38;4.60;;;;;;;;;;5032174;28;20021;-61
2022/02/01 09:31:49;;;;;;;12.52;4.50;;;;;;;;;;5039883;28;20475;-61
2022/02/01 09:34:15;;;;;;;14.15;5.25;;;;;;;;;;5034599;28;20029;-61
2022/02/01 09:36:40;;;;;;;12.80;4.40;;;;;;;;;;5031345;28;20087;-61
2022/02/01 09:39:08;;;;;;;11.05;3.90;;;;;;;;;;5034125;28;20033;-62
2022/02/01 09:41:37;;;;;;;16.20;3.83;;;;;;;;;;5039594;28;20041;-62
2022/02/01 09:44:02;;;;;;;13.60;4.63;;;;;;;;;;5031086;28;20559;-62
2022/02/01 09:46:30;;;;;;;18.98;4.30;;;;;;;;;;5033165;28;20120;-62
2022/02/01 09:48:56;;;;;;;10.52;3.60;;;;;;;;;;5034323;28;20063;-62
2022/02/01 09:51:21;;;;;;;17.67;5.07;;;;;;;;;;5032266;28;20450;-62
2022/02/01 09:53:47;;;;;;;13.02;5.60;;;;;;;;;;5040883;28;20029;-62
2022/02/01 09:56:15;;;;;;;20.50;6.63;;;;;;;;;;5036901;28;20022;-62
2022/02/01 09:58:41;;;;;;;18.33;3.90;;;;;;;;;;5033817;28;20048;-61
2022/02/01 10:01:19;;;;;;;24.17;8.30;;;;;;;;;;5037846;28;20033;-61
2022/02/01 10:03:46;;;;;;;7.32;2.80;;;;;;;;;;5019573;28;20025;-61
2022/02/01 10:06:17;;;;;;;6.72;3.15;;;;;;;;;;5027992;28;20030;-61
2022/02/01 10:08:47;;;;;;;12.77;4.28;;;;;;;;;;5030190;28;20055;-61
2022/02/01 10:11:13;;;;;;;12.93;4.10;;;;;;;;;;5033797;28;20439;-62
2022/02/01 10:13:42;;;;;;;8.48;3.00;;;;;;;;;;5034777;28;20087;-62
2022/02/01 10:16:27;;;;;;;9.27;3.07;;;;;;;;;;5032146;28;20021;-61
2022/02/01 10:18:52;;;;;;;12.35;4.00;;;;;;;;;;5032931;28;20283;-61
2022/02/01 10:21:18;;;;;;;19.25;5.55;;;;;;;;;;5032673;28;20017;-61
2022/02/01 10:23:45;;;;;;;10.63;2.97;;;;;;;;;;5032640;28;20036;-61
2022/02/01 10:26:18;;;;;;;8.13;2.95;;;;;;;;;;5033325;28;20021;-62
2022/02/01 10:29:03;;;;;;;10.43;2.63;;;;;;;;;;5033495;28;20467;-62
2022/02/01 10:36:56;;;;;;;8.57;2.55;;;;;;;;;;5032740;28;20079;-61
2022/02/01 10:39:23;;;;;;;9.35;3.28;;;;;;;;;;5032644;28;20021;-61
2022/02/01 10:41:59;;;;;;;8.65;2.55;;;;;;;;;;5030861;28;20029;-61
2022/02/01 10:44:37;;;;;;;11.88;4.45;;;;;;;;;;5043342;28;20026;-61
2022/02/01 10:47:03;;;;;;;10.23;4.05;;;;;;;;;;5038686;28;20017;-62
2022/02/01 10:49:30;;;;;;;6.35;2.83;;;;;;;;;;5032569;28;20024;-61
2022/02/01 10:52:03;;;;;;;7.15;3.00;;;;;;;;;;5033523;28;20035;-61
2022/02/01 10:54:30;;;;;;;6.07;2.45;;;;;;;;;;5032202;28;20515;-61
2022/02/01 10:56:55;;;;;;;7.00;2.20;;;;;;;;;;5035542;28;20504;-61
2022/02/01 10:59:23;;;;;;;8.13;2.17;;;;;;;;;;5030430;28;20025;-62
2022/02/01 11:01:49;;;;;;;8.10;3.00;;;;;;;;;;5031147;28;20120;-62
2022/02/01 11:04:19;;;;;;;12.05;3.30;;;;;;;;;;5031024;28;20128;-62
2022/02/01 11:06:44;;;;;;;10.60;2.90;;;;;;;;;;5027312;28;20087;-62
2022/02/01 11:09:10;;;;;;;17.27;2.60;;;;;;;;;;5029903;28;20030;-62
2022/02/01 11:11:36;;;;;;;7.95;2.75;;;;;;;;;;5030600;28;20589;-61
2022/02/01 11:14:01;;;;;;;8.68;3.13;;;;;;;;;;5032282;28;20160;-61
2022/02/01 11:16:27;;;;;;;9.55;2.90;;;;;;;;;;5026305;28;20045;-61
2022/02/01 11:19:06;;;;;;;10.77;2.83;;;;;;;;;;5028253;28;20064;-61
2022/02/01 11:21:53;;;;;;;10.45;2.28;;;;;;;;;;5030210;28;20044;-61
2022/02/01 11:24:37;;;;;;;7.90;2.80;;;;;;;;;;5034268;28;20075;-62
2022/02/01 11:27:19;;;;;;;6.75;2.10;;;;;;;;;;5029291;28;20090;-61
2022/02/01 11:32:31;;;;;;;11.63;2.85;;;;;;;;;;5027584;28;20045;-61
2022/02/01 11:35:06;;;;;;;8.88;3.10;;;;;;;;;;5035014;28;20037;-61
2022/02/01 11:37:32;;;;;;;14.30;3.05;;;;;;;;;;5030742;28;20091;-62
2022/02/01 11:39:58;;;;;;;10.40;2.70;;;;;;;;;;5034908;28;20467;-61
2022/02/01 11:42:31;;;;;;;9.70;2.28;;;;;;;;;;5027675;28;20040;-61
2022/02/01 11:45:07;;;;;;;8.15;2.13;;;;;;;;;;5032415;28;20056;-61
2022/02/01 11:47:33;;;;;;;5.57;2.28;;;;;;;;;;5031007;28;20025;-60
2022/02/01 11:50:12;;;;;;;7.65;2.63;;;;;;;;;;5034518;28;20067;-61
2022/02/01 11:52:44;;;;;;;12.60;2.50;;;;;;;;;;5028821;28;20071;-61
2022/02/01 11:55:11;;;;;;;10.70;2.65;;;;;;;;;;5030031;28;20755;-61
2022/02/01 11:57:45;;;;;;;9.13;2.38;;;;;;;;;;5028147;28;20021;-62
2022/02/01 12:00:25;;;;;;;9.07;2.40;;;;;;;;;;5030191;28;20108;-61
2022/02/01 12:02:55;;;;;;;7.60;2.83;;;;;;;;;;5030199;28;20033;-62
2022/02/01 12:05:27;;;;;;;;;;;;;;;;;;5034660;28;20032;-61
2022/02/01 12:08:08;;;;;;;6.35;2.58;;;;;;;;;;5029491;28;19924;-61
2022/02/01 12:10:38;;;;;;;9.93;3.10;;;;;;;;;;5028142;28;20439;-61
2022/02/01 12:13:04;;;;;;;11.98;2.75;;;;;;;;;;5028993;28;20318;-62
2022/02/01 12:15:32;;;;;;;9.82;2.55;;;;;;;;;;5031550;28;20412;-61
2022/02/01 12:18:09;;;;;;;10.10;2.30;;;;;;;;;;5029643;28;20519;-61
2022/02/01 12:20:37;;;;;;;15.68;3.20;;;;;;;;;;5033086;28;20056;-61
2022/02/01 12:23:18;;;;;;;13.80;2.88;;;;;;;;;;5034349;28;20029;-62
2022/02/01 12:25:43;;;;;;;6.82;2.22;;;;;;;;;;5029663;28;20040;-61
2022/02/01 12:28:22;;;;;;;5.43;2.00;;;;;;;;;;5030724;28;20405;-61
2022/02/01 12:30:49;;;;;;;8.60;2.13;;;;;;;;;;5025741;28;20059;-61
2022/02/01 12:33:17;;;;;;;6.28;2.40;;;;;;;;;;5033161;28;20075;-61
2022/02/01 12:35:44;;;;;;;6.03;1.98;;;;;;;;;;5035197;28;20082;-61
2022/02/01 12:38:20;;;;;;;4.47;1.88;;;;;;;;;;5027334;28;20029;-61
2022/02/01 12:41:00;;;;;;;4.25;1.80;;;;;;;;;;5036164;28;20037;-60
2022/02/01 12:43:31;;;;;;;5.90;2.17;;;;;;;;;;5029799;28;20053;-61
2022/02/01 12:48:31;;;;;;;9.10;1.95;;;;;;;;;;5033335;28;20107;-62
2022/02/01 12:51:03;;;;;;;7.40;1.75;;;;;;;;;;5025927;28;20065;-61
2022/02/01 12:53:41;;;;;;;6.40;1.67;;;;;;;;;;5027617;28;20029;-62
2022/02/01 12:56:20;;;;;;;8.38;1.95;;;;;;;;;;5029366;28;20140;-62
2022/02/01 12:58:56;;;;;;;6.50;2.20;;;;;;;;;;5024361;28;20084;-62
2022/02/01 13:01:35;;;;;;;6.55;2.28;;;;;;;;;;5026223;28;20032;-62
2022/02/01 13:04:02;;;;;;;5.60;2.72;;;;;;;;;;5025667;28;20306;-61
2022/02/01 13:06:29;;;;;;;7.38;1.90;;;;;;;;;;5025371;28;20030;-61
2022/02/01 13:17:16;;;;;;;9.75;2.03;;;;;;;;;;5026761;28;20061;-61
2022/02/01 13:22:32;;;;;;;4.93;1.70;;;;;;;;;;5029715;28;20489;-62
2022/02/01 13:25:06;;;;;;;8.55;2.55;;;;;;;;;;5028098;28;20946;-62
2022/02/01 13:27:33;;;;;;;6.43;2.10;;;;;;;;;;5026626;28;20083;-61
2022/02/01 13:30:05;;;;;;;5.95;2.10;;;;;;;;;;5024839;28;20071;-61
2022/02/01 13:32:36;;;;;;;8.50;2.47;;;;;;;;;;5041124;28;20115;-61
2022/02/01 13:35:08;;;;;;;8.95;2.53;;;;;;;;;;5028951;28;20032;-61
2022/02/01 13:37:35;;;;;;;5.53;2.05;;;;;;;;;;5025613;28;20303;-61
2022/02/01 13:40:03;;;;;;;5.50;2.20;;;;;;;;;;5027429;28;20037;-61
2022/02/01 13:42:32;;;;;;;6.43;1.73;;;;;;;;;;5025976;28;20057;-61
2022/02/01 13:45:04;;;;;;;8.13;2.33;;;;;;;;;;5026757;28;20064;-61
2022/02/01 13:47:38;;;;;;;9.15;2.20;;;;;;;;;;5024079;28;20037;-61
2022/02/01 13:50:16;;;;;;;5.35;2.40;;;;;;;;;;5030634;28;20031;-61
2022/02/01 13:52:41;;;;;;;4.68;1.88;;;;;;;;;;5025977;28;20108;-61
2022/02/01 13:55:28;;;;;;;7.53;2.10;;;;;;;;;;5027651;28;20120;-61
2022/02/01 13:58:08;;;;;;;3.67;1.60;;;;;;;;;;5030545;28;20029;-61
2022/02/01 14:00:35;;;;;;;;;;;;;;;;;;5027918;28;20985;-61
2022/02/01 14:03:16;;;;;;;7.43;2.50;;;;;;;;;;5028202;28;19940;-62
2022/02/01 14:05:43;;;;;;;5.22;2.30;;;;;;;;;;5031643;28;20017;-61
2022/02/01 14:08:30;;;;;;;4.75;2.40;;;;;;;;;;5023245;28;20393;-62
2022/02/01 14:11:24;;;;;;;12.27;3.00;;;;;;;;;;5028719;28;20021;-61
2022/02/01 14:14:05;;;;;;;3.25;2.30;;;;;;;;;;5032808;28;20496;-61
2022/02/01 14:27:47;;;;;;;6.30;2.00;;;;;;;;;;5032394;28;20048;-62
2022/02/01 14:35:28;;;;;;;5.78;2.00;;;;;;;;;;5031588;28;20040;-62
2022/02/01 14:38:05;;;;;;;4.88;2.00;;;;;;;;;;5032544;28;20651;-61
2022/02/01 14:45:43;;;;;;;4.22;2.10;;;;;;;;;;5032548;28;20029;-61
2022/02/01 14:48:08;;;;;;;5.50;2.50;;;;;;;;;;5033410;28;20028;-61
2022/02/01 14:50:34;;;;;;;8.73;2.92;;;;;;;;;;5029797;28;20099;-61
2022/02/01 14:52:59;;;;;;;4.50;2.42;;;;;;;;;;5026440;28;20700;-62
2022/02/01 14:55:33;;;;;;;5.05;2.03;;;;;;;;;;5027458;28;20289;-62
2022/02/01 15:03:45;;;;;;;4.00;1.88;;;;;;;;;;5029728;28;20040;-61
2022/02/01 15:14:30;;;;;;;5.18;1.70;;;;;;;;;;5034327;28;20163;-61
2022/02/01 15:16:56;;;;;;;5.00;1.55;;;;;;;;;;5033031;28;20132;-61
2022/02/01 15:19:21;;;;;;;7.72;2.20;;;;;;;;;;5031497;28;20083;-61
2022/02/01 15:21:48;;;;;;;6.25;1.95;;;;;;;;;;5033444;28;20279;-61
2022/02/01 15:24:14;;;;;;;6.30;2.13;;;;;;;;;;5035918;28;20123;-62
2022/02/01 15:26:39;;;;;;;6.53;2.53;;;;;;;;;;5030582;28;20160;-61
2022/02/01 15:29:05;;;;;;;5.72;2.70;;;;;;;;;;5026156;28;20163;-61
2022/02/01 15:31:30;;;;;;;5.75;2.60;;;;;;;;;;5028922;28;20033;-61
2022/02/01 15:33:59;;;;;;;4.70;1.50;;;;;;;;;;5031970;28;20510;-62
2022/02/01 15:36:31;;;;;;;4.03;1.70;;;;;;;;;;5035137;28;20096;-61
2022/02/01 15:58:05;;;;;;;11.45;5.53;;;;;;;;;;5028049;28;20555;-60
2022/02/01 16:00:34;;;;;;;4.07;2.55;;;;;;;;;;5027664;28;20037;-60
2022/02/01 16:03:07;;;;;;;4.38;2.35;;;;;;;;;;5026274;28;20032;-60
2022/02/01 16:05:32;;;;;;;3.78;1.80;;;;;;;;;;5027728;28;20112;-60
2022/02/01 16:07:58;;;;;;;5.55;2.50;;;;;;;;;;5027699;28;20151;-61
2022/02/01 16:10:34;;;;;;;3.58;1.40;;;;;;;;;;5035534;28;20428;-61
2022/02/01 16:13:06;;;;;;;4.00;1.50;;;;;;;;;;5028093;28;20448;-61
2022/02/01 16:15:32;;;;;;;6.32;1.83;;;;;;;;;;5020056;28;20025;-62
2022/02/01 16:17:57;;;;;;;6.38;2.08;;;;;;;;;;5050161;28;20033;-64
2022/02/01 16:20:22;;;;;;;4.68;2.00;;;;;;;;;;5022227;28;20027;-62
2022/02/01 16:22:48;;;;;;;4.63;1.52;;;;;;;;;;5050140;28;20030;-60
2022/02/01 16:25:13;;;;;;;2.85;1.40;;;;;;;;;;5028389;28;20033;-60
2022/02/01 16:27:40;;;;;;;3.92;1.45;;;;;;;;;;5030823;28;20028;-60
2022/02/01 16:30:20;;;;;;;5.72;2.10;;;;;;;;;;5035107;28;20075;-60
2022/02/01 16:32:45;;;;;;;3.75;1.95;;;;;;;;;;5031210;28;20036;-61
2022/02/01 16:35:11;;;;;;;2.63;1.40;;;;;;;;;;5031358;28;20029;-61
2022/02/01 16:37:37;;;;;;;4.85;1.90;;;;;;;;;;5033991;28;20025;-61
2022/02/01 16:40:04;;;;;;;5.00;1.90;;;;;;;;;;5035210;28;20481;-61
2022/02/01 16:42:33;;;;;;;4.55;1.70;;;;;;;;;;5036212;28;20030;-60
2022/02/01 16:44:58;;;;;;;8.23;3.03;;;;;;;;;;5035000;28;20025;-60
2022/02/01 16:47:24;;;;;;;5.07;2.45;;;;;;;;;;5027000;28;20030;-60
2022/02/01 16:49:50;;;;;;;6.55;2.70;;;;;;;;;;5020847;28;20314;-64
2022/02/01 16:52:23;;;;;;;3.70;1.95;;;;;;;;;;5027421;28;20037;-64
2022/02/01 16:55:13;;;;;;;3.03;1.55;;;;;;;;;;5032674;28;20273;-61
2022/02/01 16:57:56;;;;;;;3.08;1.42;;;;;;;;;;5024649;28;20116;-64
2022/02/01 17:00:32;;;;;;;4.38;1.90;;;;;;;;;;5032372;28;20029;-64
2022/02/01 17:02:58;;;;;;;2.70;1.55;;;;;;;;;;5012346;28;20033;-63
2022/02/01 17:05:25;;;;;;;6.05;2.47;;;;;;;;;;5031684;28;20490;-63
2022/02/01 17:07:51;;;;;;;4.30;1.35;;;;;;;;;;5028579;28;20033;-61
2022/02/01 17:10:18;;;;;;;5.15;2.08;;;;;;;;;;5033766;28;20051;-63
2022/02/01 17:12:49;;;;;;;4.10;2.42;;;;;;;;;;5029383;28;20480;-64
2022/02/01 17:15:37;;;;;;;5.25;2.40;;;;;;;;;;5030951;28;20052;-63
2022/02/01 17:23:22;;;;;;;6.13;1.90;;;;;;;;;;5030563;28;20133;-61
2022/02/01 17:25:48;;;;;;;4.88;1.98;;;;;;;;;;5029149;28;21004;-60
2022/02/01 17:28:13;;;;;;;8.82;3.20;;;;;;;;;;5027673;28;20032;-61
2022/02/01 17:30:39;;;;;;;5.07;1.65;;;;;;;;;;5030230;28;20041;-61
2022/02/01 17:33:04;;;;;;;6.40;2.08;;;;;;;;;;5034116;28;20409;-61
2022/02/01 17:35:30;;;;;;;5.28;2.85;;;;;;;;;;5035078;28;20297;-60
2022/02/01 17:37:55;;;;;;;6.03;2.35;;;;;;;;;;5030376;28;20020;-61
2022/02/01 17:40:22;;;;;;;5.43;2.90;;;;;;;;;;5032479;28;20078;-61
2022/02/01 17:42:50;;;;;;;4.35;2.38;;;;;;;;;;5032367;28;20029;-60
2022/02/01 17:45:17;;;;;;;10.88;2.92;;;;;;;;;;5032704;28;20025;-61